sensor_id;sensor_type;location;lat;lon;timestamp;P1;durP1;ratioP1;P2;durP2;ratioP2
36253;SDS011;22291;52.250;21.228;2022-07-06T00:01:19;13.68;;;9.50;;
36253;SDS011;22291;52.250;21.228;2022-07-06T00:03:46;10.82;;;9.78;;
36253;SDS011;22291;52.250;21.228;2022-07-06T00:06:13;11.08;;;8.55;;
36253;SDS011;22291;52.250;21.228;2022-07-06T00:08:39;10.72;;;8.93;;
36253;SDS011;22291;52.250;21.228;2022-07-06T00:11:05;10.03;;;8.95;;
36253;SDS011;22291;52.250;21.228;2022-07-06T00:13:32;10.10;;;9.10;;
36253;SDS011;22291;52.250;21.228;2022-07-06T00:15:58;10.55;;;9.30;;
36253;SDS011;22291;52.250;21.228;2022-07-06T00:18:24;9.73;;;8.73;;
36253;SDS011;22291;52.250;21.228;2022-07-06T00:20:50;9.40;;;8.58;;
36253;SDS011;22291;52.250;21.228;2022-07-06T00:23:16;9.05;;;8.20;;
36253;SDS011;22291;52.250;21.228;2022-07-06T00:25:43;10.03;;;9.03;;
36253;SDS011;22291;52.250;21.228;2022-07-06T00:28:10;9.20;;;8.23;;
36253;SDS011;22291;52.250;21.228;2022-07-06T00:30:36;10.05;;;9.05;;
36253;SDS011;22291;52.250;21.228;2022-07-06T00:33:03;11.18;;;8.68;;
36253;SDS011;22291;52.250;21.228;2022-07-06T00:35:29;10.68;;;8.23;;
36253;SDS011;22291;52.250;21.228;2022-07-06T00:37:55;10.30;;;8.00;;
36253;SDS011;22291;52.250;21.228;2022-07-06T00:40:21;10.70;;;8.00;;
36253;SDS011;22291;52.250;21.228;2022-07-06T00:42:48;9.88;;;8.58;;
36253;SDS011;22291;52.250;21.228;2022-07-06T00:45:16;9.83;;;8.83;;
36253;SDS011;22291;52.250;21.228;2022-07-06T00:47:44;10.80;;;8.30;;
36253;SDS011;22291;52.250;21.228;2022-07-06T00:50:12;10.63;;;9.53;;
36253;SDS011;22291;52.250;21.228;2022-07-06T00:52:55;10.13;;;8.75;;
36253;SDS011;22291;52.250;21.228;2022-07-06T00:55:29;11.78;;;8.95;;
36253;SDS011;22291;52.250;21.228;2022-07-06T00:58:04;9.60;;;8.60;;
36253;SDS011;22291;52.250;21.228;2022-07-06T01:00:28;10.30;;;9.30;;
36253;SDS011;22291;52.250;21.228;2022-07-06T01:02:56;11.65;;;9.95;;
36253;SDS011;22291;52.250;21.228;2022-07-06T01:05:23;9.95;;;9.03;;
36253;SDS011;22291;52.250;21.228;2022-07-06T01:07:50;12.35;;;9.30;;
36253;SDS011;22291;52.250;21.228;2022-07-06T01:10:19;11.83;;;8.23;;
36253;SDS011;22291;52.250;21.228;2022-07-06T01:12:47;11.15;;;9.30;;
36253;SDS011;22291;52.250;21.228;2022-07-06T01:15:15;9.55;;;8.53;;
36253;SDS011;22291;52.250;21.228;2022-07-06T01:17:45;10.95;;;8.93;;
36253;SDS011;22291;52.250;21.228;2022-07-06T01:25:10;9.13;;;8.28;;
36253;SDS011;22291;52.250;21.228;2022-07-06T01:27:37;9.48;;;8.68;;
36253;SDS011;22291;52.250;21.228;2022-07-06T01:30:06;10.55;;;8.00;;
36253;SDS011;22291;52.250;21.228;2022-07-06T01:32:38;11.22;;;8.35;;
36253;SDS011;22291;52.250;21.228;2022-07-06T01:35:06;9.93;;;8.28;;
36253;SDS011;22291;52.250;21.228;2022-07-06T01:37:35;11.55;;;8.85;;
36253;SDS011;22291;52.250;21.228;2022-07-06T01:40:03;9.25;;;8.20;;
36253;SDS011;22291;52.250;21.228;2022-07-06T01:42:32;8.75;;;7.85;;
36253;SDS011;22291;52.250;21.228;2022-07-06T01:44:59;8.58;;;7.78;;
36253;SDS011;22291;52.250;21.228;2022-07-06T01:47:27;8.63;;;7.83;;
36253;SDS011;22291;52.250;21.228;2022-07-06T01:49:53;12.78;;;7.65;;
36253;SDS011;22291;52.250;21.228;2022-07-06T01:52:25;11.35;;;8.23;;
36253;SDS011;22291;52.250;21.228;2022-07-06T01:54:53;9.10;;;7.97;;
36253;SDS011;22291;52.250;21.228;2022-07-06T01:57:21;11.97;;;8.60;;
36253;SDS011;22291;52.250;21.228;2022-07-06T01:59:47;9.95;;;8.38;;
36253;SDS011;22291;52.250;21.228;2022-07-06T02:02:13;9.33;;;8.33;;
36253;SDS011;22291;52.250;21.228;2022-07-06T02:04:40;10.65;;;8.05;;
36253;SDS011;22291;52.250;21.228;2022-07-06T02:07:07;9.13;;;7.85;;
36253;SDS011;22291;52.250;21.228;2022-07-06T02:09:33;9.13;;;8.23;;
36253;SDS011;22291;52.250;21.228;2022-07-06T02:11:59;10.55;;;8.43;;
36253;SDS011;22291;52.250;21.228;2022-07-06T02:14:25;9.33;;;8.45;;
36253;SDS011;22291;52.250;21.228;2022-07-06T02:16:51;9.60;;;8.33;;
36253;SDS011;22291;52.250;21.228;2022-07-06T02:19:17;11.80;;;9.25;;
36253;SDS011;22291;52.250;21.228;2022-07-06T02:21:43;9.95;;;8.05;;
36253;SDS011;22291;52.250;21.228;2022-07-06T02:24:09;9.30;;;8.43;;
36253;SDS011;22291;52.250;21.228;2022-07-06T02:26:35;11.33;;;8.95;;
36253;SDS011;22291;52.250;21.228;2022-07-06T02:29:01;10.80;;;9.58;;
36253;SDS011;22291;52.250;21.228;2022-07-06T02:31:27;11.93;;;8.45;;
36253;SDS011;22291;52.250;21.228;2022-07-06T02:33:53;9.75;;;8.75;;
36253;SDS011;22291;52.250;21.228;2022-07-06T02:36:19;10.63;;;8.90;;
36253;SDS011;22291;52.250;21.228;2022-07-06T02:38:46;11.70;;;9.03;;
36253;SDS011;22291;52.250;21.228;2022-07-06T02:41:12;11.93;;;8.60;;
36253;SDS011;22291;52.250;21.228;2022-07-06T02:43:38;12.88;;;8.73;;
36253;SDS011;22291;52.250;21.228;2022-07-06T02:46:04;8.95;;;8.05;;
36253;SDS011;22291;52.250;21.228;2022-07-06T02:48:31;12.58;;;8.85;;
36253;SDS011;22291;52.250;21.228;2022-07-06T02:50:57;9.03;;;8.15;;
36253;SDS011;22291;52.250;21.228;2022-07-06T02:53:24;8.98;;;7.83;;
36253;SDS011;22291;52.250;21.228;2022-07-06T02:55:50;8.40;;;7.62;;
36253;SDS011;22291;52.250;21.228;2022-07-06T02:58:16;9.78;;;8.60;;
36253;SDS011;22291;52.250;21.228;2022-07-06T03:00:42;11.15;;;8.28;;
36253;SDS011;22291;52.250;21.228;2022-07-06T03:03:08;8.53;;;7.72;;
36253;SDS011;22291;52.250;21.228;2022-07-06T03:05:35;10.10;;;8.38;;
36253;SDS011;22291;52.250;21.228;2022-07-06T03:08:01;9.18;;;7.70;;
36253;SDS011;22291;52.250;21.228;2022-07-06T03:10:28;11.80;;;7.70;;
36253;SDS011;22291;52.250;21.228;2022-07-06T03:12:54;8.80;;;7.08;;
36253;SDS011;22291;52.250;21.228;2022-07-06T03:15:21;7.67;;;6.92;;
36253;SDS011;22291;52.250;21.228;2022-07-06T03:17:47;12.68;;;7.40;;
36253;SDS011;22291;52.250;21.228;2022-07-06T03:20:13;7.92;;;7.12;;
36253;SDS011;22291;52.250;21.228;2022-07-06T03:22:39;10.38;;;6.78;;
36253;SDS011;22291;52.250;21.228;2022-07-06T03:25:05;8.15;;;6.65;;
36253;SDS011;22291;52.250;21.228;2022-07-06T03:27:32;7.60;;;6.75;;
36253;SDS011;22291;52.250;21.228;2022-07-06T03:29:59;7.15;;;6.45;;
36253;SDS011;22291;52.250;21.228;2022-07-06T03:32:25;7.75;;;6.65;;
36253;SDS011;22291;52.250;21.228;2022-07-06T03:34:51;8.05;;;6.45;;
36253;SDS011;22291;52.250;21.228;2022-07-06T03:37:17;6.97;;;6.20;;
36253;SDS011;22291;52.250;21.228;2022-07-06T03:39:43;7.95;;;5.40;;
36253;SDS011;22291;52.250;21.228;2022-07-06T03:42:09;6.15;;;5.42;;
36253;SDS011;22291;52.250;21.228;2022-07-06T03:44:35;6.50;;;5.37;;
36253;SDS011;22291;52.250;21.228;2022-07-06T03:47:01;6.12;;;5.50;;
36253;SDS011;22291;52.250;21.228;2022-07-06T03:49:28;7.10;;;5.70;;
36253;SDS011;22291;52.250;21.228;2022-07-06T03:51:54;5.42;;;4.92;;
36253;SDS011;22291;52.250;21.228;2022-07-06T03:54:20;8.58;;;5.70;;
36253;SDS011;22291;52.250;21.228;2022-07-06T03:56:46;8.53;;;6.30;;
36253;SDS011;22291;52.250;21.228;2022-07-06T03:59:12;7.58;;;6.12;;
36253;SDS011;22291;52.250;21.228;2022-07-06T04:01:39;6.65;;;5.80;;
36253;SDS011;22291;52.250;21.228;2022-07-06T04:04:06;6.10;;;5.58;;
36253;SDS011;22291;52.250;21.228;2022-07-06T04:06:32;7.83;;;5.67;;
36253;SDS011;22291;52.250;21.228;2022-07-06T04:09:00;9.30;;;6.47;;
36253;SDS011;22291;52.250;21.228;2022-07-06T04:11:26;7.53;;;6.62;;
36253;SDS011;22291;52.250;21.228;2022-07-06T04:13:52;8.40;;;6.10;;
36253;SDS011;22291;52.250;21.228;2022-07-06T04:16:20;7.05;;;6.33;;
36253;SDS011;22291;52.250;21.228;2022-07-06T04:18:46;7.85;;;5.80;;
36253;SDS011;22291;52.250;21.228;2022-07-06T04:21:12;10.58;;;9.13;;
36253;SDS011;22291;52.250;21.228;2022-07-06T04:23:38;12.70;;;8.45;;
36253;SDS011;22291;52.250;21.228;2022-07-06T04:26:04;7.12;;;6.28;;
36253;SDS011;22291;52.250;21.228;2022-07-06T04:28:30;9.30;;;7.08;;
36253;SDS011;22291;52.250;21.228;2022-07-06T04:30:57;7.67;;;6.87;;
36253;SDS011;22291;52.250;21.228;2022-07-06T04:33:23;7.28;;;6.50;;
36253;SDS011;22291;52.250;21.228;2022-07-06T04:35:49;8.63;;;6.87;;
36253;SDS011;22291;52.250;21.228;2022-07-06T04:38:15;7.30;;;6.40;;
36253;SDS011;22291;52.250;21.228;2022-07-06T04:40:42;7.62;;;6.33;;
36253;SDS011;22291;52.250;21.228;2022-07-06T04:43:08;10.53;;;6.90;;
36253;SDS011;22291;52.250;21.228;2022-07-06T04:45:34;6.83;;;6.15;;
36253;SDS011;22291;52.250;21.228;2022-07-06T04:48:00;7.45;;;6.60;;
36253;SDS011;22291;52.250;21.228;2022-07-06T04:50:26;6.80;;;6.10;;
36253;SDS011;22291;52.250;21.228;2022-07-06T04:52:53;8.38;;;6.33;;
36253;SDS011;22291;52.250;21.228;2022-07-06T04:55:19;7.22;;;6.22;;
36253;SDS011;22291;52.250;21.228;2022-07-06T04:57:45;8.13;;;6.22;;
36253;SDS011;22291;52.250;21.228;2022-07-06T05:00:12;13.80;;;10.28;;
36253;SDS011;22291;52.250;21.228;2022-07-06T05:02:39;38.85;;;24.72;;
36253;SDS011;22291;52.250;21.228;2022-07-06T05:05:05;11.10;;;7.80;;
36253;SDS011;22291;52.250;21.228;2022-07-06T05:07:35;7.25;;;6.47;;
36253;SDS011;22291;52.250;21.228;2022-07-06T05:10:03;6.92;;;6.22;;
36253;SDS011;22291;52.250;21.228;2022-07-06T05:12:31;8.18;;;6.03;;
36253;SDS011;22291;52.250;21.228;2022-07-06T05:14:57;11.03;;;6.20;;
36253;SDS011;22291;52.250;21.228;2022-07-06T05:17:24;6.22;;;5.72;;
36253;SDS011;22291;52.250;21.228;2022-07-06T05:19:51;6.87;;;6.20;;
36253;SDS011;22291;52.250;21.228;2022-07-06T05:22:17;9.05;;;5.62;;
36253;SDS011;22291;52.250;21.228;2022-07-06T05:24:44;8.08;;;6.62;;
36253;SDS011;22291;52.250;21.228;2022-07-06T05:27:10;8.48;;;5.90;;
36253;SDS011;22291;52.250;21.228;2022-07-06T05:29:36;8.93;;;5.30;;
36253;SDS011;22291;52.250;21.228;2022-07-06T05:32:02;6.70;;;5.55;;
36253;SDS011;22291;52.250;21.228;2022-07-06T05:34:29;7.00;;;5.87;;
36253;SDS011;22291;52.250;21.228;2022-07-06T05:36:55;6.30;;;4.45;;
36253;SDS011;22291;52.250;21.228;2022-07-06T05:39:21;5.22;;;4.70;;
36253;SDS011;22291;52.250;21.228;2022-07-06T05:41:48;5.17;;;4.67;;
36253;SDS011;22291;52.250;21.228;2022-07-06T05:44:15;7.40;;;4.83;;
36253;SDS011;22291;52.250;21.228;2022-07-06T05:46:41;6.67;;;4.70;;
36253;SDS011;22291;52.250;21.228;2022-07-06T05:49:07;7.03;;;4.90;;
36253;SDS011;22291;52.250;21.228;2022-07-06T05:51:51;5.80;;;5.20;;
36253;SDS011;22291;52.250;21.228;2022-07-06T05:54:17;5.75;;;4.75;;
36253;SDS011;22291;52.250;21.228;2022-07-06T05:56:43;18.20;;;10.55;;
36253;SDS011;22291;52.250;21.228;2022-07-06T05:59:09;14.90;;;8.85;;
36253;SDS011;22291;52.250;21.228;2022-07-06T06:01:36;8.73;;;5.95;;
36253;SDS011;22291;52.250;21.228;2022-07-06T06:04:02;6.50;;;5.45;;
36253;SDS011;22291;52.250;21.228;2022-07-06T06:06:28;8.43;;;5.78;;
36253;SDS011;22291;52.250;21.228;2022-07-06T06:08:56;9.38;;;5.85;;
36253;SDS011;22291;52.250;21.228;2022-07-06T06:11:22;6.47;;;5.87;;
36253;SDS011;22291;52.250;21.228;2022-07-06T06:13:49;6.20;;;5.67;;
36253;SDS011;22291;52.250;21.228;2022-07-06T06:16:15;7.22;;;6.20;;
36253;SDS011;22291;52.250;21.228;2022-07-06T06:18:41;7.40;;;6.00;;
36253;SDS011;22291;52.250;21.228;2022-07-06T06:21:07;7.65;;;6.08;;
36253;SDS011;22291;52.250;21.228;2022-07-06T06:23:34;6.83;;;6.12;;
36253;SDS011;22291;52.250;21.228;2022-07-06T06:26:00;6.95;;;6.30;;
36253;SDS011;22291;52.250;21.228;2022-07-06T06:28:26;6.65;;;5.95;;
36253;SDS011;22291;52.250;21.228;2022-07-06T06:30:53;16.65;;;11.68;;
36253;SDS011;22291;52.250;21.228;2022-07-06T06:33:19;9.30;;;7.65;;
36253;SDS011;22291;52.250;21.228;2022-07-06T06:35:48;10.93;;;7.33;;
36253;SDS011;22291;52.250;21.228;2022-07-06T06:40:43;7.92;;;7.17;;
36253;SDS011;22291;52.250;21.228;2022-07-06T06:43:10;6.58;;;5.85;;
36253;SDS011;22291;52.250;21.228;2022-07-06T06:45:36;8.20;;;6.22;;
36253;SDS011;22291;52.250;21.228;2022-07-06T06:48:03;5.80;;;5.28;;
36253;SDS011;22291;52.250;21.228;2022-07-06T06:50:30;6.08;;;5.50;;
36253;SDS011;22291;52.250;21.228;2022-07-06T06:52:56;5.62;;;4.53;;
36253;SDS011;22291;52.250;21.228;2022-07-06T06:55:22;5.15;;;4.72;;
36253;SDS011;22291;52.250;21.228;2022-07-06T06:57:48;4.80;;;4.40;;
36253;SDS011;22291;52.250;21.228;2022-07-06T07:00:15;6.30;;;4.45;;
36253;SDS011;22291;52.250;21.228;2022-07-06T07:02:41;5.90;;;4.58;;
36253;SDS011;22291;52.250;21.228;2022-07-06T07:05:08;5.75;;;3.90;;
36253;SDS011;22291;52.250;21.228;2022-07-06T07:07:35;7.83;;;3.75;;
36253;SDS011;22291;52.250;21.228;2022-07-06T07:10:04;4.58;;;4.28;;
36253;SDS011;22291;52.250;21.228;2022-07-06T07:12:32;6.33;;;3.87;;
36253;SDS011;22291;52.250;21.228;2022-07-06T07:14:59;5.62;;;4.22;;
36253;SDS011;22291;52.250;21.228;2022-07-06T07:17:27;5.10;;;4.60;;
36253;SDS011;22291;52.250;21.228;2022-07-06T07:19:53;4.42;;;4.03;;
36253;SDS011;22291;52.250;21.228;2022-07-06T07:22:21;4.60;;;4.22;;
36253;SDS011;22291;52.250;21.228;2022-07-06T07:24:50;8.95;;;5.22;;
36253;SDS011;22291;52.250;21.228;2022-07-06T07:27:18;5.40;;;4.90;;
36253;SDS011;22291;52.250;21.228;2022-07-06T07:29:46;6.60;;;4.85;;
36253;SDS011;22291;52.250;21.228;2022-07-06T07:32:13;6.92;;;5.50;;
36253;SDS011;22291;52.250;21.228;2022-07-06T07:34:41;8.75;;;5.70;;
36253;SDS011;22291;52.250;21.228;2022-07-06T07:37:07;8.73;;;6.85;;
36253;SDS011;22291;52.250;21.228;2022-07-06T07:39:34;13.68;;;9.85;;
36253;SDS011;22291;52.250;21.228;2022-07-06T07:42:00;10.88;;;9.50;;
36253;SDS011;22291;52.250;21.228;2022-07-06T07:44:26;12.75;;;11.48;;
36253;SDS011;22291;52.250;21.228;2022-07-06T07:46:52;12.10;;;9.33;;
36253;SDS011;22291;52.250;21.228;2022-07-06T07:49:19;10.80;;;9.75;;
36253;SDS011;22291;52.250;21.228;2022-07-06T07:51:47;11.85;;;9.18;;
36253;SDS011;22291;52.250;21.228;2022-07-06T07:54:14;8.90;;;7.67;;
36253;SDS011;22291;52.250;21.228;2022-07-06T07:56:41;8.98;;;7.80;;
36253;SDS011;22291;52.250;21.228;2022-07-06T07:59:08;7.78;;;6.87;;
36253;SDS011;22291;52.250;21.228;2022-07-06T08:01:34;6.58;;;5.97;;
36253;SDS011;22291;52.250;21.228;2022-07-06T08:04:01;6.70;;;5.45;;
36253;SDS011;22291;52.250;21.228;2022-07-06T08:06:28;11.03;;;5.37;;
36253;SDS011;22291;52.250;21.228;2022-07-06T08:08:54;5.40;;;4.90;;
36253;SDS011;22291;52.250;21.228;2022-07-06T08:11:20;4.58;;;4.17;;
36253;SDS011;22291;52.250;21.228;2022-07-06T08:13:47;7.83;;;4.47;;
36253;SDS011;22291;52.250;21.228;2022-07-06T08:16:13;5.40;;;3.55;;
36253;SDS011;22291;52.250;21.228;2022-07-06T08:18:40;6.33;;;3.62;;
36253;SDS011;22291;52.250;21.228;2022-07-06T08:21:07;4.83;;;3.80;;
36253;SDS011;22291;52.250;21.228;2022-07-06T08:23:35;3.45;;;3.02;;
36253;SDS011;22291;52.250;21.228;2022-07-06T08:26:04;4.33;;;2.92;;
36253;SDS011;22291;52.250;21.228;2022-07-06T08:28:31;6.25;;;3.95;;
36253;SDS011;22291;52.250;21.228;2022-07-06T08:30:57;9.60;;;5.53;;
36253;SDS011;22291;52.250;21.228;2022-07-06T08:33:24;6.05;;;2.27;;
36253;SDS011;22291;52.250;21.228;2022-07-06T08:35:50;5.75;;;2.30;;
36253;SDS011;22291;52.250;21.228;2022-07-06T08:38:16;4.03;;;2.10;;
36253;SDS011;22291;52.250;21.228;2022-07-06T08:40:43;3.50;;;2.30;;
36253;SDS011;22291;52.250;21.228;2022-07-06T08:43:15;2.77;;;2.27;;
36253;SDS011;22291;52.250;21.228;2022-07-06T08:45:42;5.80;;;2.22;;
36253;SDS011;22291;52.250;21.228;2022-07-06T08:48:11;3.20;;;2.22;;
36253;SDS011;22291;52.250;21.228;2022-07-06T08:50:38;4.15;;;2.05;;
36253;SDS011;22291;52.250;21.228;2022-07-06T08:53:04;3.33;;;1.80;;
36253;SDS011;22291;52.250;21.228;2022-07-06T08:55:32;4.90;;;2.33;;
36253;SDS011;22291;52.250;21.228;2022-07-06T08:57:59;6.72;;;1.80;;
36253;SDS011;22291;52.250;21.228;2022-07-06T09:00:26;4.55;;;1.92;;
36253;SDS011;22291;52.250;21.228;2022-07-06T09:02:52;2.92;;;1.72;;
36253;SDS011;22291;52.250;21.228;2022-07-06T09:05:25;5.03;;;1.80;;
36253;SDS011;22291;52.250;21.228;2022-07-06T09:07:52;2.45;;;1.75;;
36253;SDS011;22291;52.250;21.228;2022-07-06T09:10:19;5.90;;;2.00;;
36253;SDS011;22291;52.250;21.228;2022-07-06T09:12:47;4.25;;;1.77;;
36253;SDS011;22291;52.250;21.228;2022-07-06T09:15:14;2.12;;;1.50;;
36253;SDS011;22291;52.250;21.228;2022-07-06T09:17:42;3.75;;;2.02;;
36253;SDS011;22291;52.250;21.228;2022-07-06T09:20:10;1.85;;;1.60;;
36253;SDS011;22291;52.250;21.228;2022-07-06T09:22:39;5.08;;;1.62;;
36253;SDS011;22291;52.250;21.228;2022-07-06T09:25:09;3.72;;;2.00;;
36253;SDS011;22291;52.250;21.228;2022-07-06T09:27:40;3.85;;;1.20;;
36253;SDS011;22291;52.250;21.228;2022-07-06T09:30:17;2.75;;;1.17;;
36253;SDS011;22291;52.250;21.228;2022-07-06T09:32:44;4.70;;;1.35;;
36253;SDS011;22291;52.250;21.228;2022-07-06T09:35:28;2.10;;;1.30;;
36253;SDS011;22291;52.250;21.228;2022-07-06T09:40:37;2.37;;;1.57;;
36253;SDS011;22291;52.250;21.228;2022-07-06T09:43:14;3.58;;;0.90;;
36253;SDS011;22291;52.250;21.228;2022-07-06T09:45:49;2.58;;;0.90;;
36253;SDS011;22291;52.250;21.228;2022-07-06T09:48:18;2.20;;;1.22;;
36253;SDS011;22291;52.250;21.228;2022-07-06T09:50:50;2.87;;;0.98;;
36253;SDS011;22291;52.250;21.228;2022-07-06T09:53:25;3.33;;;1.00;;
36253;SDS011;22291;52.250;21.228;2022-07-06T09:55:53;1.80;;;0.82;;
36253;SDS011;22291;52.250;21.228;2022-07-06T09:58:21;1.25;;;0.90;;
36253;SDS011;22291;52.250;21.228;2022-07-06T10:00:48;3.37;;;0.70;;
36253;SDS011;22291;52.250;21.228;2022-07-06T10:03:16;5.10;;;1.00;;
36253;SDS011;22291;52.250;21.228;2022-07-06T10:05:44;3.37;;;0.75;;
36253;SDS011;22291;52.250;21.228;2022-07-06T10:08:14;1.82;;;0.70;;
36253;SDS011;22291;52.250;21.228;2022-07-06T10:10:43;2.65;;;0.90;;
36253;SDS011;22291;52.250;21.228;2022-07-06T10:13:10;2.65;;;1.20;;
36253;SDS011;22291;52.250;21.228;2022-07-06T10:15:38;1.75;;;0.80;;
36253;SDS011;22291;52.250;21.228;2022-07-06T10:20:36;1.37;;;0.70;;
36253;SDS011;22291;52.250;21.228;2022-07-06T10:23:05;1.07;;;0.78;;
36253;SDS011;22291;52.250;21.228;2022-07-06T10:25:34;1.37;;;0.70;;
36253;SDS011;22291;52.250;21.228;2022-07-06T10:28:01;3.33;;;0.62;;
36253;SDS011;22291;52.250;21.228;2022-07-06T10:30:31;2.47;;;0.70;;
36253;SDS011;22291;52.250;21.228;2022-07-06T10:32:58;2.22;;;0.60;;
36253;SDS011;22291;52.250;21.228;2022-07-06T10:35:25;1.85;;;0.60;;
36253;SDS011;22291;52.250;21.228;2022-07-06T10:38:04;3.42;;;0.60;;
36253;SDS011;22291;52.250;21.228;2022-07-06T10:40:38;1.55;;;0.68;;
36253;SDS011;22291;52.250;21.228;2022-07-06T10:43:38;2.92;;;0.50;;
36253;SDS011;22291;52.250;21.228;2022-07-06T10:46:05;2.60;;;0.50;;
36253;SDS011;22291;52.250;21.228;2022-07-06T10:48:37;1.50;;;0.50;;
36253;SDS011;22291;52.250;21.228;2022-07-06T10:51:07;1.27;;;0.82;;
36253;SDS011;22291;52.250;21.228;2022-07-06T10:53:37;4.40;;;1.90;;
36253;SDS011;22291;52.250;21.228;2022-07-06T10:56:06;1.70;;;0.95;;
36253;SDS011;22291;52.250;21.228;2022-07-06T11:01:07;2.33;;;0.80;;
36253;SDS011;22291;52.250;21.228;2022-07-06T11:03:43;2.25;;;0.65;;
36253;SDS011;22291;52.250;21.228;2022-07-06T11:06:24;1.22;;;0.78;;
36253;SDS011;22291;52.250;21.228;2022-07-06T11:08:55;3.87;;;1.12;;
36253;SDS011;22291;52.250;21.228;2022-07-06T11:14:11;0.65;;;0.45;;
36253;SDS011;22291;52.250;21.228;2022-07-06T11:17:01;1.15;;;0.50;;
36253;SDS011;22291;52.250;21.228;2022-07-06T11:19:18;3.17;;;0.60;;
36253;SDS011;22291;52.250;21.228;2022-07-06T11:24:36;1.67;;;0.88;;
36253;SDS011;22291;52.250;21.228;2022-07-06T11:27:05;1.22;;;0.75;;
36253;SDS011;22291;52.250;21.228;2022-07-06T11:29:32;1.22;;;0.70;;
36253;SDS011;22291;52.250;21.228;2022-07-06T11:32:00;3.60;;;0.70;;
36253;SDS011;22291;52.250;21.228;2022-07-06T11:34:30;2.60;;;1.90;;
36253;SDS011;22291;52.250;21.228;2022-07-06T11:37:07;4.47;;;1.42;;
36253;SDS011;22291;52.250;21.228;2022-07-06T11:39:39;4.03;;;1.02;;
36253;SDS011;22291;52.250;21.228;2022-07-06T11:42:08;1.98;;;0.62;;
36253;SDS011;22291;52.250;21.228;2022-07-06T11:44:36;3.62;;;0.95;;
36253;SDS011;22291;52.250;21.228;2022-07-06T11:49:33;5.87;;;0.93;;
36253;SDS011;22291;52.250;21.228;2022-07-06T11:52:05;1.50;;;0.70;;
36253;SDS011;22291;52.250;21.228;2022-07-06T11:54:38;1.85;;;0.70;;
36253;SDS011;22291;52.250;21.228;2022-07-06T11:57:07;3.37;;;0.95;;
36253;SDS011;22291;52.250;21.228;2022-07-06T11:59:37;3.87;;;0.93;;
36253;SDS011;22291;52.250;21.228;2022-07-06T12:04:41;2.75;;;0.65;;
36253;SDS011;22291;52.250;21.228;2022-07-06T12:07:14;2.72;;;1.25;;
36253;SDS011;22291;52.250;21.228;2022-07-06T12:09:41;2.37;;;1.00;;
36253;SDS011;22291;52.250;21.228;2022-07-06T12:12:10;2.42;;;0.70;;
36253;SDS011;22291;52.250;21.228;2022-07-06T12:14:38;3.08;;;0.60;;
36253;SDS011;22291;52.250;21.228;2022-07-06T12:19:37;2.42;;;0.95;;
36253;SDS011;22291;52.250;21.228;2022-07-06T12:22:04;1.55;;;0.70;;
36253;SDS011;22291;52.250;21.228;2022-07-06T12:24:33;1.72;;;0.82;;
36253;SDS011;22291;52.250;21.228;2022-07-06T12:27:15;3.55;;;0.75;;
36253;SDS011;22291;52.250;21.228;2022-07-06T12:29:40;2.37;;;0.82;;
36253;SDS011;22291;52.250;21.228;2022-07-06T12:32:13;1.45;;;0.80;;
36253;SDS011;22291;52.250;21.228;2022-07-06T12:35:01;3.87;;;1.30;;
36253;SDS011;22291;52.250;21.228;2022-07-06T12:37:30;1.55;;;0.62;;
36253;SDS011;22291;52.250;21.228;2022-07-06T12:39:56;2.17;;;0.78;;
36253;SDS011;22291;52.250;21.228;2022-07-06T12:42:22;4.08;;;0.88;;
36253;SDS011;22291;52.250;21.228;2022-07-06T12:44:49;5.78;;;0.90;;
36253;SDS011;22291;52.250;21.228;2022-07-06T12:47:17;2.42;;;0.70;;
36253;SDS011;22291;52.250;21.228;2022-07-06T12:50:03;2.42;;;0.70;;
36253;SDS011;22291;52.250;21.228;2022-07-06T12:52:31;3.52;;;1.00;;
36253;SDS011;22291;52.250;21.228;2022-07-06T12:54:59;6.05;;;0.60;;
36253;SDS011;22291;52.250;21.228;2022-07-06T12:57:26;5.67;;;1.47;;
36253;SDS011;22291;52.250;21.228;2022-07-06T13:05:10;1.40;;;0.80;;
36253;SDS011;22291;52.250;21.228;2022-07-06T13:07:43;3.25;;;0.53;;
36253;SDS011;22291;52.250;21.228;2022-07-06T13:10:12;2.17;;;0.60;;
36253;SDS011;22291;52.250;21.228;2022-07-06T13:12:40;2.60;;;0.60;;
36253;SDS011;22291;52.250;21.228;2022-07-06T13:15:07;4.55;;;0.70;;
36253;SDS011;22291;52.250;21.228;2022-07-06T13:17:35;4.33;;;0.85;;
36253;SDS011;22291;52.250;21.228;2022-07-06T13:20:05;0.75;;;0.60;;
36253;SDS011;22291;52.250;21.228;2022-07-06T13:22:33;2.33;;;0.78;;
36253;SDS011;22291;52.250;21.228;2022-07-06T13:25:00;3.90;;;0.88;;
36253;SDS011;22291;52.250;21.228;2022-07-06T13:27:28;1.47;;;0.80;;
36253;SDS011;22291;52.250;21.228;2022-07-06T13:29:54;1.00;;;0.70;;
36253;SDS011;22291;52.250;21.228;2022-07-06T13:32:20;1.82;;;0.95;;
36253;SDS011;22291;52.250;21.228;2022-07-06T13:34:47;4.47;;;1.95;;
36253;SDS011;22291;52.250;21.228;2022-07-06T13:37:14;0.80;;;0.80;;
36253;SDS011;22291;52.250;21.228;2022-07-06T13:39:40;4.00;;;0.90;;
36253;SDS011;22291;52.250;21.228;2022-07-06T13:42:06;1.65;;;0.90;;
36253;SDS011;22291;52.250;21.228;2022-07-06T13:44:34;2.70;;;0.75;;
36253;SDS011;22291;52.250;21.228;2022-07-06T13:47:00;1.67;;;0.78;;
36253;SDS011;22291;52.250;21.228;2022-07-06T13:49:27;2.08;;;0.82;;
36253;SDS011;22291;52.250;21.228;2022-07-06T13:51:53;1.57;;;0.93;;
36253;SDS011;22291;52.250;21.228;2022-07-06T13:54:20;5.17;;;0.82;;
36253;SDS011;22291;52.250;21.228;2022-07-06T13:56:46;2.00;;;1.10;;
36253;SDS011;22291;52.250;21.228;2022-07-06T13:59:12;4.55;;;0.90;;
36253;SDS011;22291;52.250;21.228;2022-07-06T14:01:39;4.12;;;1.07;;
36253;SDS011;22291;52.250;21.228;2022-07-06T14:04:05;2.25;;;0.95;;
36253;SDS011;22291;52.250;21.228;2022-07-06T14:06:31;1.22;;;1.10;;
36253;SDS011;22291;52.250;21.228;2022-07-06T14:08:57;3.60;;;0.85;;
36253;SDS011;22291;52.250;21.228;2022-07-06T14:11:23;3.62;;;0.82;;
36253;SDS011;22291;52.250;21.228;2022-07-06T14:13:49;2.47;;;0.70;;
36253;SDS011;22291;52.250;21.228;2022-07-06T14:16:15;2.75;;;1.10;;
36253;SDS011;22291;52.250;21.228;2022-07-06T14:18:41;2.47;;;1.10;;
36253;SDS011;22291;52.250;21.228;2022-07-06T14:21:09;1.00;;;0.80;;
36253;SDS011;22291;52.250;21.228;2022-07-06T14:23:35;2.55;;;0.90;;
36253;SDS011;22291;52.250;21.228;2022-07-06T14:26:01;3.85;;;1.02;;
36253;SDS011;22291;52.250;21.228;2022-07-06T14:28:27;4.08;;;0.80;;
36253;SDS011;22291;52.250;21.228;2022-07-06T14:30:53;3.77;;;0.72;;
36253;SDS011;22291;52.250;21.228;2022-07-06T14:33:19;2.45;;;0.90;;
36253;SDS011;22291;52.250;21.228;2022-07-06T14:35:47;2.33;;;1.07;;
36253;SDS011;22291;52.250;21.228;2022-07-06T14:38:16;3.60;;;0.93;;
36253;SDS011;22291;52.250;21.228;2022-07-06T14:40:43;2.77;;;0.85;;
36253;SDS011;22291;52.250;21.228;2022-07-06T14:43:10;1.67;;;0.60;;
36253;SDS011;22291;52.250;21.228;2022-07-06T14:45:37;2.47;;;0.98;;
36253;SDS011;22291;52.250;21.228;2022-07-06T14:48:04;5.08;;;1.85;;
36253;SDS011;22291;52.250;21.228;2022-07-06T14:50:31;6.67;;;4.10;;
36253;SDS011;22291;52.250;21.228;2022-07-06T14:52:57;2.55;;;1.20;;
36253;SDS011;22291;52.250;21.228;2022-07-06T14:55:24;3.70;;;1.00;;
36253;SDS011;22291;52.250;21.228;2022-07-06T14:57:50;3.20;;;1.15;;
36253;SDS011;22291;52.250;21.228;2022-07-06T15:00:17;2.40;;;0.93;;
36253;SDS011;22291;52.250;21.228;2022-07-06T15:02:44;0.90;;;0.80;;
36253;SDS011;22291;52.250;21.228;2022-07-06T15:05:10;4.90;;;1.05;;
36253;SDS011;22291;52.250;21.228;2022-07-06T15:07:38;0.98;;;0.93;;